Wetterdaten: Dienstag, 15.11.2016
Datum Zeit Temp. Auen Feucht Auen Luftdruck Regen Richtung Richtung Windben
15.11.2016 00:00 -1,3 C 90 % 1033,8 hPa 0,0 mm O-SO 111 0,0 km/h (0 Bft)
15.11.2016 00:05 -1,2 C 91 % 1033,8 hPa 0,0 mm O-SO 111 0,0 km/h (0 Bft)
15.11.2016 00:10 -1,3 C 90 % 1033,7 hPa 0,0 mm O-SO 111 0,0 km/h (0 Bft)
15.11.2016 00:15 -1,5 C 90 % 1033,6 hPa 0,0 mm O-SO 111 0,0 km/h (0 Bft)
15.11.2016 00:20 -1,7 C 90 % 1033,5 hPa 0,0 mm O-SO 111 0,0 km/h (0 Bft)
15.11.2016 00:25 -1,8 C 90 % 1033,6 hPa 0,0 mm O-SO 111 0,0 km/h (0 Bft)
15.11.2016 00:30 -1,7 C 91 % 1033,6 hPa 0,0 mm O-SO 111 0,0 km/h (0 Bft)
15.11.2016 00:35 -1,8 C 91 % 1033,6 hPa 0,0 mm O-SO 111 0,0 km/h (0 Bft)
15.11.2016 00:40 -1,9 C 90 % 1033,6 hPa 0,0 mm O-SO 111 0,0 km/h (0 Bft)
15.11.2016 00:45 -1,8 C 91 % 1033,5 hPa 0,0 mm O-SO 111 0,0 km/h (0 Bft)
15.11.2016 00:50 -2,0 C 91 % 1033,6 hPa 0,0 mm O-SO 111 0,0 km/h (0 Bft)
15.11.2016 00:55 -2,1 C 91 % 1033,4 hPa 0,0 mm O-SO 111 0,0 km/h (0 Bft)
15.11.2016 01:00 -2,2 C 91 % 1033,5 hPa 0,0 mm O-SO 111 0,0 km/h (0 Bft)
15.11.2016 01:05 -2,4 C 91 % 1033,5 hPa 0,0 mm O-SO 111 0,0 km/h (0 Bft)
15.11.2016 01:10 -2,5 C 91 % 1033,5 hPa 0,0 mm O-SO 111 0,0 km/h (0 Bft)
15.11.2016 01:15 -2,4 C 92 % 1033,5 hPa 0,0 mm O-SO 111 0,0 km/h (0 Bft)
15.11.2016 01:20 -2,4 C 92 % 1033,3 hPa 0,0 mm O-SO 111 0,0 km/h (0 Bft)
15.11.2016 01:25 -2,7 C 92 % 1033,3 hPa 0,0 mm O-SO 111 0,0 km/h (0 Bft)
15.11.2016 01:30 -2,7 C 92 % 1033,3 hPa 0,0 mm O-SO 102 0,0 km/h (0 Bft)
15.11.2016 01:35 -2,7 C 92 % 1033,4 hPa 0,0 mm O-SO 102 0,0 km/h (0 Bft)
15.11.2016 01:40 -2,8 C 92 % 1033,4 hPa 0,0 mm O-SO 102 0,0 km/h (0 Bft)
15.11.2016 01:45 -2,9 C 92 % 1033,3 hPa 0,0 mm O-SO 102 0,0 km/h (0 Bft)
15.11.2016 01:50 -3,0 C 92 % 1033,4 hPa 0,0 mm O-SO 102 0,0 km/h (0 Bft)
15.11.2016 01:55 -3,0 C 93 % 1033,5 hPa 0,0 mm O-SO 102 0,0 km/h (0 Bft)
15.11.2016 02:00 -3,1 C 92 % 1033,4 hPa 0,0 mm O-SO 102 0,0 km/h (0 Bft)
15.11.2016 02:05 -3,2 C 92 % 1033,5 hPa 0,0 mm O-SO 102 0,0 km/h (0 Bft)
15.11.2016 02:10 -3,3 C 93 % 1033,5 hPa 0,0 mm O-SO 102 0,0 km/h (0 Bft)
15.11.2016 02:15 -3,4 C 93 % 1033,6 hPa 0,0 mm O-SO 102 0,0 km/h (0 Bft)
15.11.2016 02:20 -3,4 C 93 % 1033,6 hPa 0,0 mm O-SO 102 0,0 km/h (0 Bft)
15.11.2016 02:25 -3,7 C 93 % 1033,6 hPa 0,0 mm O-SO 102 0,0 km/h (0 Bft)
15.11.2016 02:30 -3,7 C 93 % 1033,6 hPa 0,0 mm O-SO 102 0,0 km/h (0 Bft)
15.11.2016 02:35 -3,7 C 93 % 1033,5 hPa 0,0 mm O-SO 102 0,0 km/h (0 Bft)
15.11.2016 02:40 -3,8 C 93 % 1033,6 hPa 0,0 mm O-SO 102 0,0 km/h (0 Bft)
15.11.2016 02:45 -3,6 C 93 % 1033,6 hPa 0,0 mm O-SO 102 0,0 km/h (0 Bft)
15.11.2016 02:50 -3,6 C 94 % 1033,6 hPa 0,0 mm O-SO 102 0,0 km/h (0 Bft)
15.11.2016 02:55 -3,7 C 93 % 1033,6 hPa 0,0 mm O-SO 102 0,0 km/h (0 Bft)
15.11.2016 03:00 -3,8 C 93 % 1033,6 hPa 0,0 mm SW 227 3,2 km/h (1 Bft)
15.11.2016 03:05 -3,9 C 93 % 1033,6 hPa 0,0 mm SW 227 1,6 km/h (1 Bft)
15.11.2016 03:10 -3,9 C 93 % 1033,7 hPa 0,0 mm SW 227 1,6 km/h (1 Bft)
15.11.2016 03:15 -3,8 C 94 % 1033,6 hPa 0,0 mm SW 227 1,6 km/h (1 Bft)
15.11.2016 03:20 -4,0 C 93 % 1033,6 hPa 0,0 mm SW 227 0,0 km/h (0 Bft)
15.11.2016 03:25 -4,2 C 94 % 1033,7 hPa 0,0 mm SW 227 0,0 km/h (0 Bft)
15.11.2016 03:30 -4,2 C 94 % 1033,7 hPa 0,0 mm SW 227 0,0 km/h (0 Bft)
15.11.2016 03:35 -4,2 C 94 % 1033,7 hPa 0,0 mm SW 227 0,0 km/h (0 Bft)
15.11.2016 03:40 -4,4 C 93 % 1033,8 hPa 0,0 mm SW 227 0,0 km/h (0 Bft)
15.11.2016 03:45 -4,4 C 94 % 1033,8 hPa 0,0 mm SW 227 1,6 km/h (1 Bft)
15.11.2016 03:50 -4,3 C 94 % 1033,8 hPa 0,0 mm SW 227 1,6 km/h (1 Bft)
15.11.2016 03:55 -4,6 C 94 % 1033,6 hPa 0,0 mm SW 227 0,0 km/h (0 Bft)
15.11.2016 04:00 -4,6 C 94 % 1033,6 hPa 0,0 mm SW 227 0,0 km/h (0 Bft)
15.11.2016 04:05 -4,6 C 94 % 1033,6 hPa 0,0 mm SW 227 0,0 km/h (0 Bft)
15.11.2016 04:10 -4,6 C 94 % 1033,5 hPa 0,0 mm SW 227 0,0 km/h (0 Bft)
15.11.2016 04:15 -4,7 C 94 % 1033,5 hPa 0,0 mm SW 227 0,0 km/h (0 Bft)
15.11.2016 04:20 -4,6 C 94 % 1033,5 hPa 0,0 mm SW 227 1,6 km/h (1 Bft)
15.11.2016 04:25 -4,6 C 94 % 1033,6 hPa 0,0 mm SW 227 0,0 km/h (0 Bft)
15.11.2016 04:30 -4,8 C 94 % 1033,5 hPa 0,0 mm SW 227 0,0 km/h (0 Bft)
15.11.2016 04:35 -4,9 C 94 % 1033,6 hPa 0,0 mm SW 227 0,0 km/h (0 Bft)
15.11.2016 04:40 -4,9 C 94 % 1033,6 hPa 0,0 mm SW 227 0,0 km/h (0 Bft)
15.11.2016 04:45 -5,0 C 94 % 1033,5 hPa 0,0 mm SW 227 0,0 km/h (0 Bft)
15.11.2016 04:50 -5,1 C 94 % 1033,4 hPa 0,0 mm SW 227 0,0 km/h (0 Bft)
15.11.2016 04:55 -5,2 C 94 % 1033,4 hPa 0,0 mm SW 227 0,0 km/h (0 Bft)
15.11.2016 05:00 -5,3 C 94 % 1033,3 hPa 0,0 mm SW 227 0,0 km/h (0 Bft)
15.11.2016 05:05 -5,2 C 94 % 1033,2 hPa 0,0 mm SW 227 0,0 km/h (0 Bft)
15.11.2016 05:10 -5,3 C 94 % 1033,1 hPa 0,0 mm SW 227 0,0 km/h (0 Bft)
15.11.2016 05:15 -5,3 C 94 % 1033,2 hPa 0,0 mm SW 227 1,6 km/h (1 Bft)
15.11.2016 05:20 -5,0 C 94 % 1033,2 hPa 0,0 mm SW 227 3,2 km/h (1 Bft)
15.11.2016 05:25 -5,1 C 94 % 1033,2 hPa 0,0 mm SW 227 1,6 km/h (1 Bft)
15.11.2016 05:30 -5,3 C 94 % 1033,2 hPa 0,0 mm SW 227 1,6 km/h (1 Bft)
15.11.2016 05:35 -5,1 C 94 % 1033,1 hPa 0,0 mm W-SW 245 4,8 km/h (1 Bft)
15.11.2016 05:40 -4,7 C 94 % 1033,2 hPa 0,0 mm W-SW 246 3,2 km/h (1 Bft)
15.11.2016 05:45 -4,7 C 94 % 1033,3 hPa 0,0 mm W-SW 246 3,2 km/h (1 Bft)
15.11.2016 05:50 -4,9 C 94 % 1033,4 hPa 0,0 mm W-SW 246 0,0 km/h (0 Bft)
15.11.2016 05:55 -4,9 C 94 % 1033,4 hPa 0,0 mm W-SW 246 0,0 km/h (0 Bft)
15.11.2016 06:00 -4,9 C 94 % 1033,6 hPa 0,0 mm W-SW 246 0,0 km/h (0 Bft)
15.11.2016 06:05 -4,9 C 94 % 1033,6 hPa 0,0 mm W-SW 246 1,6 km/h (1 Bft)
15.11.2016 06:10 -4,9 C 94 % 1033,7 hPa 0,0 mm W-SW 246 0,0 km/h (0 Bft)
15.11.2016 06:15 -5,0 C 94 % 1033,9 hPa 0,0 mm W-SW 246 1,6 km/h (1 Bft)
15.11.2016 06:20 -4,9 C 94 % 1034,0 hPa 0,0 mm W-SW 246 0,0 km/h (0 Bft)
15.11.2016 06:25 -5,0 C 94 % 1033,9 hPa 0,0 mm W-SW 246 1,6 km/h (1 Bft)
15.11.2016 06:30 -4,9 C 94 % 1033,9 hPa 0,0 mm W-SW 246 0,0 km/h (0 Bft)
15.11.2016 06:35 -4,9 C 94 % 1033,9 hPa 0,0 mm W-SW 246 4,8 km/h (1 Bft)
15.11.2016 06:40 -4,9 C 94 % 1033,8 hPa 0,0 mm W-SW 246 4,8 km/h (1 Bft)
15.11.2016 06:45 -5,1 C 94 % 1033,9 hPa 0,0 mm W-SW 246 1,6 km/h (1 Bft)
15.11.2016 06:50 -5,2 C 94 % 1033,8 hPa 0,0 mm W-SW 246 0,0 km/h (0 Bft)
15.11.2016 06:55 -5,3 C 94 % 1033,9 hPa 0,0 mm W-SW 246 0,0 km/h (0 Bft)
15.11.2016 07:00 -5,3 C 94 % 1033,9 hPa 0,0 mm W-SW 246 1,6 km/h (1 Bft)
15.11.2016 07:05 -5,3 C 94 % 1033,8 hPa 0,0 mm W-SW 246 3,2 km/h (1 Bft)
15.11.2016 07:10 -5,3 C 94 % 1033,8 hPa 0,0 mm W-SW 246 1,6 km/h (1 Bft)
15.11.2016 07:15 -5,2 C 94 % 1033,9 hPa 0,0 mm W-SW 246 1,6 km/h (1 Bft)
15.11.2016 07:20 -5,2 C 94 % 1033,9 hPa 0,0 mm W-SW 246 0,0 km/h (0 Bft)
15.11.2016 07:25 -5,4 C 94 % 1033,9 hPa 0,0 mm W-SW 246 0,0 km/h (0 Bft)
15.11.2016 07:30 -5,3 C 94 % 1034,0 hPa 0,0 mm W-SW 246 0,0 km/h (0 Bft)
15.11.2016 07:35 -5,3 C 94 % 1034,0 hPa 0,0 mm W-SW 246 0,0 km/h (0 Bft)
15.11.2016 07:40 -5,2 C 94 % 1034,0 hPa 0,0 mm W-SW 246 0,0 km/h (0 Bft)
15.11.2016 07:45 -5,0 C 94 % 1034,0 hPa 0,0 mm W-SW 246 0,0 km/h (0 Bft)
15.11.2016 07:50 -4,9 C 94 % 1034,0 hPa 0,0 mm W-SW 246 0,0 km/h (0 Bft)
15.11.2016 07:55 -4,9 C 94 % 1034,1 hPa 0,0 mm W-SW 246 0,0 km/h (0 Bft)
15.11.2016 08:00 -5,1 C 94 % 1034,2 hPa 0,0 mm W-SW 246 0,0 km/h (0 Bft)
15.11.2016 08:05 -5,1 C 94 % 1034,2 hPa 0,0 mm W-SW 246 0,0 km/h (0 Bft)
15.11.2016 08:10 -5,0 C 94 % 1034,2 hPa 0,0 mm W-SW 246 0,0 km/h (0 Bft)
15.11.2016 08:15 -5,0 C 94 % 1034,1 hPa 0,0 mm W-SW 246 0,0 km/h (0 Bft)
15.11.2016 08:20 -4,9 C 94 % 1034,1 hPa 0,0 mm W-SW 246 0,0 km/h (0 Bft)
15.11.2016 08:25 -4,8 C 94 % 1034,1 hPa 0,0 mm W-SW 246 0,0 km/h (0 Bft)
15.11.2016 08:30 -4,6 C 94 % 1034,1 hPa 0,0 mm W-SW 246 0,0 km/h (0 Bft)
15.11.2016 08:35 -4,2 C 94 % 1034,1 hPa 0,0 mm W-SW 246 0,0 km/h (0 Bft)
15.11.2016 08:40 -3,1 C 95 % 1034,1 hPa 0,0 mm W-SW 246 0,0 km/h (0 Bft)
15.11.2016 08:45 -2,7 C 95 % 1034,1 hPa 0,0 mm W-SW 246 0,0 km/h (0 Bft)
15.11.2016 08:50 -2,6 C 94 % 1034,1 hPa 0,0 mm W-SW 246 0,0 km/h (0 Bft)
15.11.2016 08:55 -1,8 C 94 % 1034,1 hPa 0,0 mm W-SW 246 0,0 km/h (0 Bft)
15.11.2016 09:00 -1,2 C 94 % 1034,0 hPa 0,0 mm W-SW 246 0,0 km/h (0 Bft)
15.11.2016 09:05 -0,6 C 93 % 1033,9 hPa 0,0 mm W-SW 246 0,0 km/h (0 Bft)
15.11.2016 09:10 -0,3 C 92 % 1034,0 hPa 0,0 mm W-SW 246 0,0 km/h (0 Bft)
15.11.2016 09:15 -1,0 C 90 % 1033,8 hPa 0,0 mm W-SW 246 1,6 km/h (1 Bft)
15.11.2016 09:20 -1,4 C 91 % 1033,7 hPa 0,0 mm W-SW 246 1,6 km/h (1 Bft)
15.11.2016 09:25 -1,0 C 92 % 1033,8 hPa 0,0 mm W-SW 246 1,6 km/h (1 Bft)
15.11.2016 09:30 -0,4 C 92 % 1033,7 hPa 0,0 mm W-SW 246 0,0 km/h (0 Bft)
15.11.2016 09:35 -1,1 C 90 % 1033,8 hPa 0,0 mm W-SW 246 3,2 km/h (1 Bft)
15.11.2016 09:40 -1,1 C 91 % 1033,9 hPa 0,0 mm S-SW 198 4,8 km/h (1 Bft)
15.11.2016 09:45 -1,1 C 91 % 1033,8 hPa 0,0 mm S-SW 192 4,8 km/h (1 Bft)
15.11.2016 09:50 -0,9 C 91 % 1033,8 hPa 0,0 mm S-SW 192 3,2 km/h (1 Bft)
15.11.2016 09:55 -0,8 C 91 % 1033,7 hPa 0,0 mm S-SW 192 4,8 km/h (1 Bft)
15.11.2016 10:00 -0,8 C 91 % 1033,8 hPa 0,0 mm S-SW 192 4,8 km/h (1 Bft)
15.11.2016 10:05 -0,4 C 91 % 1033,8 hPa 0,0 mm S-SW 192 1,6 km/h (1 Bft)
15.11.2016 10:10 -0,5 C 89 % 1033,9 hPa 0,0 mm S-SW 192 1,6 km/h (1 Bft)
15.11.2016 10:15 0,1 C 89 % 1033,9 hPa 0,0 mm S 191 3,2 km/h (1 Bft)
15.11.2016 10:20 0,1 C 89 % 1033,9 hPa 0,0 mm S 191 3,2 km/h (1 Bft)
15.11.2016 10:25 0,4 C 88 % 1033,9 hPa 0,0 mm S 191 1,6 km/h (1 Bft)
15.11.2016 10:30 0,1 C 87 % 1033,9 hPa 0,0 mm S 190 4,8 km/h (1 Bft)
15.11.2016 10:35 0,2 C 88 % 1033,9 hPa 0,0 mm S-SO 168 4,8 km/h (1 Bft)
15.11.2016 10:40 0,1 C 87 % 1033,8 hPa 0,0 mm S-SO 168 4,8 km/h (1 Bft)
15.11.2016 10:45 0,3 C 87 % 1033,8 hPa 0,0 mm S-SO 168 3,2 km/h (1 Bft)
15.11.2016 10:50 0,3 C 87 % 1033,7 hPa 0,0 mm S-SO 168 3,2 km/h (1 Bft)
15.11.2016 10:55 0,8 C 87 % 1033,6 hPa 0,0 mm S-SO 168 1,6 km/h (1 Bft)
15.11.2016 11:00 1,1 C 87 % 1033,6 hPa 0,0 mm S-SO 168 1,6 km/h (1 Bft)
15.11.2016 11:05 2,3 C 85 % 1033,5 hPa 0,0 mm S 182 3,2 km/h (1 Bft)
15.11.2016 11:10 2,2 C 83 % 1033,5 hPa 0,0 mm W 277 4,8 km/h (1 Bft)
15.11.2016 11:15 2,9 C 83 % 1033,5 hPa 0,0 mm W 276 6,4 km/h (2 Bft)
15.11.2016 11:20 2,7 C 81 % 1033,5 hPa 0,0 mm W-NW 292 3,2 km/h (1 Bft)
15.11.2016 11:25 3,2 C 80 % 1033,4 hPa 0,0 mm S-SW 198 4,8 km/h (1 Bft)
15.11.2016 11:30 3,8 C 81 % 1033,3 hPa 0,0 mm W 275 6,4 km/h (2 Bft)
15.11.2016 11:35 4,3 C 78 % 1033,3 hPa 0,0 mm W 275 4,8 km/h (1 Bft)
15.11.2016 11:40 4,3 C 76 % 1033,3 hPa 0,0 mm W 275 6,4 km/h (2 Bft)
15.11.2016 11:45 4,1 C 76 % 1033,2 hPa 0,0 mm W 270 8,0 km/h (2 Bft)
15.11.2016 11:50 3,9 C 76 % 1033,1 hPa 0,0 mm W-NW 286 6,4 km/h (2 Bft)
15.11.2016 11:55 3,9 C 76 % 1032,9 hPa 0,0 mm W 270 9,7 km/h (2 Bft)
15.11.2016 12:00 4,1 C 76 % 1032,8 hPa 0,0 mm W-NW 286 6,4 km/h (2 Bft)
15.11.2016 12:05 4,2 C 77 % 1032,8 hPa 0,0 mm SW 227 6,4 km/h (2 Bft)
15.11.2016 12:10 3,8 C 77 % 1032,7 hPa 0,0 mm S-SW 212 3,2 km/h (1 Bft)
15.11.2016 12:15 4,0 C 77 % 1032,6 hPa 0,0 mm S 174 6,4 km/h (2 Bft)
15.11.2016 12:20 4,1 C 78 % 1032,4 hPa 0,0 mm W-NW 285 4,8 km/h (1 Bft)
15.11.2016 12:25 3,6 C 78 % 1032,3 hPa 0,0 mm S-SW 209 3,2 km/h (1 Bft)
15.11.2016 12:30 3,6 C 78 % 1032,2 hPa 0,0 mm S-SW 209 1,6 km/h (1 Bft)
15.11.2016 12:35 3,7 C 78 % 1032,2 hPa 0,0 mm W 269 4,8 km/h (1 Bft)
15.11.2016 12:40 3,7 C 78 % 1032,3 hPa 0,0 mm W-SW 256 8,0 km/h (2 Bft)
15.11.2016 12:45 4,3 C 76 % 1032,3 hPa 0,0 mm W-SW 251 9,7 km/h (2 Bft)
15.11.2016 12:50 4,3 C 76 % 1032,3 hPa 0,0 mm W 273 8,0 km/h (2 Bft)
15.11.2016 12:55 4,2 C 76 % 1032,2 hPa 0,0 mm W 279 9,7 km/h (2 Bft)
15.11.2016 13:00 4,4 C 76 % 1032,1 hPa 0,0 mm W-NW 300 6,4 km/h (2 Bft)
15.11.2016 13:05 4,3 C 75 % 1032,1 hPa 0,0 mm W 267 11,3 km/h (2 Bft)
15.11.2016 13:10 4,3 C 75 % 1031,9 hPa 0,0 mm W 275 6,4 km/h (2 Bft)
15.11.2016 13:15 4,6 C 76 % 1031,9 hPa 0,0 mm W 277 8,0 km/h (2 Bft)
15.11.2016 13:20 4,4 C 75 % 1031,9 hPa 0,0 mm W 272 6,4 km/h (2 Bft)
15.11.2016 13:25 4,3 C 76 % 1032,0 hPa 0,0 mm W 273 3,2 km/h (1 Bft)
15.11.2016 13:30 4,3 C 76 % 1032,0 hPa 0,0 mm W 273 1,6 km/h (1 Bft)
15.11.2016 13:35 4,4 C 77 % 1031,9 hPa 0,0 mm W-SW 253 6,4 km/h (2 Bft)
15.11.2016 13:40 4,3 C 76 % 1031,9 hPa 0,0 mm W 275 6,4 km/h (2 Bft)
15.11.2016 13:45 4,2 C 75 % 1031,8 hPa 0,0 mm W 275 4,8 km/h (1 Bft)
15.11.2016 13:50 4,3 C 76 % 1031,7 hPa 0,0 mm W 265 3,2 km/h (1 Bft)
15.11.2016 13:55 4,4 C 75 % 1031,6 hPa 0,0 mm W 265 4,8 km/h (1 Bft)
15.11.2016 14:00 4,2 C 76 % 1031,5 hPa 0,0 mm S-SW 193 4,8 km/h (1 Bft)
15.11.2016 14:05 4,1 C 76 % 1031,5 hPa 0,0 mm S-SW 193 3,2 km/h (1 Bft)
15.11.2016 14:10 4,1 C 76 % 1031,4 hPa 0,0 mm S-SW 193 1,6 km/h (1 Bft)
15.11.2016 14:15 4,1 C 75 % 1031,4 hPa 0,0 mm S-SW 193 1,6 km/h (1 Bft)
15.11.2016 14:20 4,2 C 79 % 1031,4 hPa 0,0 mm S 189 4,8 km/h (1 Bft)
15.11.2016 14:25 4,2 C 80 % 1031,3 hPa 0,0 mm S 188 4,8 km/h (1 Bft)
15.11.2016 14:30 4,2 C 79 % 1031,3 hPa 0,0 mm S 188 3,2 km/h (1 Bft)
15.11.2016 14:35 4,1 C 80 % 1031,2 hPa 0,0 mm S 188 3,2 km/h (1 Bft)
15.11.2016 14:40 4,0 C 81 % 1031,2 hPa 0,0 mm O-SO 103 8,0 km/h (2 Bft)
15.11.2016 14:45 3,9 C 81 % 1031,2 hPa 0,0 mm SO 129 4,8 km/h (1 Bft)
15.11.2016 14:50 3,8 C 81 % 1031,3 hPa 0,0 mm SO 134 8,0 km/h (2 Bft)
15.11.2016 14:55 3,6 C 82 % 1031,3 hPa 0,0 mm SO 130 6,4 km/h (2 Bft)
15.11.2016 15:00 3,6 C 82 % 1031,3 hPa 0,0 mm SO 130 4,8 km/h (1 Bft)
15.11.2016 15:05 3,6 C 82 % 1031,2 hPa 0,0 mm SO 130 4,8 km/h (1 Bft)
15.11.2016 15:10 3,6 C 82 % 1031,1 hPa 0,0 mm O-SO 114 6,4 km/h (2 Bft)
15.11.2016 15:15 3,6 C 82 % 1031,0 hPa 0,0 mm O-SO 114 3,2 km/h (1 Bft)
15.11.2016 15:20 3,6 C 82 % 1031,0 hPa 0,0 mm O-SO 114 1,6 km/h (1 Bft)
15.11.2016 15:25 3,7 C 82 % 1030,9 hPa 0,0 mm O-SO 114 1,6 km/h (1 Bft)
15.11.2016 15:30 3,7 C 83 % 1030,8 hPa 0,0 mm O-SO 114 1,6 km/h (1 Bft)
15.11.2016 15:35 3,8 C 82 % 1030,8 hPa 0,0 mm O-SO 114 0,0 km/h (0 Bft)
15.11.2016 15:40 3,8 C 81 % 1030,8 hPa 0,0 mm O-SO 114 0,0 km/h (0 Bft)
15.11.2016 15:45 3,8 C 81 % 1030,8 hPa 0,0 mm O-SO 114 0,0 km/h (0 Bft)
15.11.2016 15:50 3,7 C 83 % 1030,7 hPa 0,0 mm O-SO 114 0,0 km/h (0 Bft)
15.11.2016 15:55 3,6 C 84 % 1030,7 hPa 0,0 mm O-SO 114 0,0 km/h (0 Bft)
15.11.2016 16:00 3,4 C 84 % 1030,8 hPa 0,0 mm O-SO 114 0,0 km/h (0 Bft)
15.11.2016 16:05 3,3 C 84 % 1030,8 hPa 0,0 mm O-SO 114 0,0 km/h (0 Bft)
15.11.2016 16:10 3,3 C 85 % 1030,9 hPa 0,0 mm O-SO 114 0,0 km/h (0 Bft)
15.11.2016 16:15 3,2 C 85 % 1031,0 hPa 0,0 mm O-SO 114 0,0 km/h (0 Bft)
15.11.2016 16:20 3,1 C 86 % 1030,8 hPa 0,0 mm O-SO 114 0,0 km/h (0 Bft)
15.11.2016 16:25 3,1 C 86 % 1031,0 hPa 0,0 mm O-SO 114 0,0 km/h (0 Bft)
15.11.2016 16:30 3,1 C 87 % 1031,1 hPa 0,0 mm O-SO 114 0,0 km/h (0 Bft)
15.11.2016 16:35 3,1 C 87 % 1031,1 hPa 0,0 mm O-SO 114 0,0 km/h (0 Bft)
15.11.2016 16:40 2,9 C 87 % 1030,9 hPa 0,0 mm O-SO 114 0,0 km/h (0 Bft)
15.11.2016 16:45 2,8 C 87 % 1030,9 hPa 0,0 mm O-SO 114 0,0 km/h (0 Bft)
15.11.2016 16:50 2,8 C 88 % 1030,9 hPa 0,0 mm O-SO 114 0,0 km/h (0 Bft)
15.11.2016 16:55 2,7 C 88 % 1030,8 hPa 0,0 mm O-SO 114 0,0 km/h (0 Bft)
15.11.2016 17:00 2,6 C 88 % 1030,8 hPa 0,0 mm O-SO 114 0,0 km/h (0 Bft)
15.11.2016 17:05 2,6 C 89 % 1030,8 hPa 0,0 mm O-SO 114 0,0 km/h (0 Bft)
15.11.2016 17:10 2,7 C 88 % 1030,9 hPa 0,0 mm O-SO 114 0,0 km/h (0 Bft)
15.11.2016 17:15 2,6 C 88 % 1030,9 hPa 0,0 mm O-SO 114 0,0 km/h (0 Bft)
15.11.2016 17:20 2,6 C 88 % 1030,9 hPa 0,0 mm O-SO 114 0,0 km/h (0 Bft)
15.11.2016 17:25 2,7 C 88 % 1030,9 hPa 0,0 mm O-SO 114 0,0 km/h (0 Bft)
15.11.2016 17:30 2,7 C 88 % 1030,9 hPa 0,0 mm O-SO 114 0,0 km/h (0 Bft)
15.11.2016 17:35 2,7 C 88 % 1031,0 hPa 0,0 mm S-SO 159 0,0 km/h (0 Bft)
15.11.2016 17:40 2,8 C 88 % 1031,0 hPa 0,0 mm S-SO 159 0,0 km/h (0 Bft)
15.11.2016 17:45 2,7 C 88 % 1031,1 hPa 0,0 mm S-SO 160 0,0 km/h (0 Bft)
15.11.2016 17:50 2,6 C 89 % 1031,1 hPa 0,0 mm S-SO 164 0,0 km/h (0 Bft)
15.11.2016 17:55 2,5 C 89 % 1031,1 hPa 0,0 mm S-SO 164 0,0 km/h (0 Bft)
15.11.2016 18:00 2,5 C 89 % 1031,1 hPa 0,0 mm S-SO 164 0,0 km/h (0 Bft)
15.11.2016 18:05 2,6 C 89 % 1031,1 hPa 0,0 mm S-SO 164 0,0 km/h (0 Bft)
15.11.2016 18:10 2,6 C 89 % 1031,1 hPa 0,0 mm S-SO 164 0,0 km/h (0 Bft)
15.11.2016 18:15 2,5 C 89 % 1031,0 hPa 0,0 mm S-SW 201 0,0 km/h (0 Bft)
15.11.2016 18:20 2,6 C 89 % 1031,1 hPa 0,0 mm S-SW 201 0,0 km/h (0 Bft)
15.11.2016 18:25 2,5 C 90 % 1031,1 hPa 0,0 mm S-SW 201 0,0 km/h (0 Bft)
15.11.2016 18:30 2,4 C 90 % 1031,1 hPa 0,0 mm S-SW 201 0,0 km/h (0 Bft)
15.11.2016 18:35 2,5 C 90 % 1031,1 hPa 0,0 mm S-SW 201 0,0 km/h (0 Bft)
15.11.2016 18:40 2,6 C 90 % 1031,1 hPa 0,0 mm S-SW 203 0,0 km/h (0 Bft)
15.11.2016 18:45 2,6 C 90 % 1031,1 hPa 0,0 mm S-SW 203 0,0 km/h (0 Bft)
15.11.2016 18:50 2,6 C 90 % 1031,2 hPa 0,0 mm S-SW 207 0,0 km/h (0 Bft)
15.11.2016 18:55 2,7 C 90 % 1031,1 hPa 0,0 mm S-SW 211 0,0 km/h (0 Bft)
15.11.2016 19:00 2,7 C 90 % 1031,0 hPa 0,0 mm S-SW 211 1,6 km/h (1 Bft)
15.11.2016 19:05 2,7 C 90 % 1031,0 hPa 0,0 mm SW 214 0,0 km/h (0 Bft)
15.11.2016 19:10 2,7 C 90 % 1030,8 hPa 0,0 mm SW 214 0,0 km/h (0 Bft)
15.11.2016 19:15 2,7 C 90 % 1030,8 hPa 0,0 mm SW 214 0,0 km/h (0 Bft)
15.11.2016 19:20 2,7 C 90 % 1030,8 hPa 0,0 mm SW 215 0,0 km/h (0 Bft)
15.11.2016 19:25 2,7 C 90 % 1030,7 hPa 0,0 mm SW 215 0,0 km/h (0 Bft)
15.11.2016 19:30 2,7 C 90 % 1030,7 hPa 0,0 mm SW 215 0,0 km/h (0 Bft)
15.11.2016 19:35 2,7 C 91 % 1030,7 hPa 0,0 mm SW 215 0,0 km/h (0 Bft)
15.11.2016 19:40 2,7 C 91 % 1030,8 hPa 0,0 mm SW 215 0,0 km/h (0 Bft)
15.11.2016 19:45 2,7 C 91 % 1030,8 hPa 0,0 mm SW 215 0,0 km/h (0 Bft)
15.11.2016 19:50 2,6 C 91 % 1030,7 hPa 0,0 mm SW 215 0,0 km/h (0 Bft)
15.11.2016 19:55 2,6 C 92 % 1030,8 hPa 0,0 mm SW 215 0,0 km/h (0 Bft)
15.11.2016 20:00 2,6 C 92 % 1030,7 hPa 0,0 mm SW 215 0,0 km/h (0 Bft)
15.11.2016 20:05 2,5 C 92 % 1030,7 hPa 0,0 mm SW 215 0,0 km/h (0 Bft)
15.11.2016 20:10 2,5 C 92 % 1030,7 hPa 0,0 mm SW 215 0,0 km/h (0 Bft)
15.11.2016 20:15 2,4 C 92 % 1030,7 hPa 0,0 mm SW 215 0,0 km/h (0 Bft)
15.11.2016 20:20 2,4 C 92 % 1030,6 hPa 0,0 mm SW 215 0,0 km/h (0 Bft)
15.11.2016 20:25 2,4 C 92 % 1030,5 hPa 0,0 mm SW 215 0,0 km/h (0 Bft)
15.11.2016 20:30 2,4 C 92 % 1030,4 hPa 0,0 mm SW 215 0,0 km/h (0 Bft)
15.11.2016 20:35 2,4 C 93 % 1030,3 hPa 0,0 mm W-SW 252 0,0 km/h (0 Bft)
15.11.2016 20:40 2,5 C 93 % 1030,4 hPa 0,0 mm W-SW 252 0,0 km/h (0 Bft)
15.11.2016 20:45 2,6 C 93 % 1030,3 hPa 0,0 mm W-SW 252 0,0 km/h (0 Bft)
15.11.2016 20:50 2,6 C 93 % 1030,3 hPa 0,0 mm W-SW 251 0,0 km/h (0 Bft)
15.11.2016 20:55 2,5 C 93 % 1030,3 hPa 0,2 mm W-SW 251 0,0 km/h (0 Bft)
15.11.2016 21:00 2,4 C 93 % 1030,3 hPa 0,0 mm W-SW 251 0,0 km/h (0 Bft)
15.11.2016 21:05 2,4 C 93 % 1030,3 hPa 0,0 mm W-SW 251 0,0 km/h (0 Bft)
15.11.2016 21:10 2,4 C 93 % 1030,2 hPa 0,0 mm W-SW 251 0,0 km/h (0 Bft)
15.11.2016 21:15 2,4 C 93 % 1030,1 hPa 0,0 mm W-SW 251 0,0 km/h (0 Bft)
15.11.2016 21:20 2,6 C 93 % 1030,1 hPa 0,0 mm W-SW 251 0,0 km/h (0 Bft)
15.11.2016 21:25 2,6 C 93 % 1030,2 hPa 0,0 mm W-SW 251 0,0 km/h (0 Bft)
15.11.2016 21:30 2,6 C 93 % 1030,2 hPa 0,0 mm W-SW 251 0,0 km/h (0 Bft)
15.11.2016 21:35 2,6 C 93 % 1030,1 hPa 0,0 mm W-SW 251 0,0 km/h (0 Bft)
15.11.2016 21:40 2,6 C 94 % 1030,0 hPa 0,0 mm W-SW 251 0,0 km/h (0 Bft)
15.11.2016 21:45 2,6 C 94 % 1030,0 hPa 0,0 mm W-SW 251 0,0 km/h (0 Bft)
15.11.2016 21:50 2,6 C 94 % 1029,9 hPa 0,0 mm W-SW 251 0,0 km/h (0 Bft)
15.11.2016 21:55 2,7 C 94 % 1029,9 hPa 0,0 mm W-SW 251 0,0 km/h (0 Bft)
15.11.2016 22:00 2,7 C 94 % 1029,9 hPa 0,0 mm W-SW 251 0,0 km/h (0 Bft)
15.11.2016 22:05 2,7 C 94 % 1029,8 hPa 0,0 mm W-SW 251 0,0 km/h (0 Bft)
15.11.2016 22:10 2,7 C 94 % 1029,7 hPa 0,0 mm W-SW 251 0,0 km/h (0 Bft)
15.11.2016 22:15 2,7 C 94 % 1029,8 hPa 0,0 mm W-SW 251 0,0 km/h (0 Bft)
15.11.2016 22:20 2,7 C 94 % 1029,7 hPa 0,0 mm W-SW 251 0,0 km/h (0 Bft)
15.11.2016 22:25 2,7 C 94 % 1029,7 hPa 0,0 mm W-SW 252 3,2 km/h (1 Bft)
15.11.2016 22:30 2,7 C 94 % 1029,7 hPa 0,0 mm W 264 6,4 km/h (2 Bft)
15.11.2016 22:35 2,7 C 94 % 1029,6 hPa 0,0 mm W 265 4,8 km/h (1 Bft)
15.11.2016 22:40 2,8 C 94 % 1029,7 hPa 0,0 mm W 265 4,8 km/h (1 Bft)
15.11.2016 22:45 2,8 C 94 % 1029,6 hPa 0,0 mm W 265 4,8 km/h (1 Bft)
15.11.2016 22:50 2,9 C 94 % 1029,7 hPa 0,0 mm W-SW 256 4,8 km/h (1 Bft)
15.11.2016 22:55 2,9 C 94 % 1029,7 hPa 0,0 mm W-SW 255 6,4 km/h (2 Bft)
15.11.2016 23:00 2,9 C 94 % 1029,7 hPa 0,0 mm W 265 8,0 km/h (2 Bft)
15.11.2016 23:05 3,0 C 94 % 1029,7 hPa 0,0 mm W 265 4,8 km/h (1 Bft)
15.11.2016 23:10 3,1 C 94 % 1029,6 hPa 0,0 mm W 265 3,2 km/h (1 Bft)
15.11.2016 23:15 3,1 C 94 % 1029,5 hPa 0,0 mm W 265 3,2 km/h (1 Bft)
15.11.2016 23:20 3,1 C 94 % 1029,4 hPa 0,0 mm W 265 3,2 km/h (1 Bft)
15.11.2016 23:25 3,2 C 94 % 1029,3 hPa 0,0 mm W 265 3,2 km/h (1 Bft)
15.11.2016 23:30 3,2 C 94 % 1029,2 hPa 0,0 mm W 265 3,2 km/h (1 Bft)
15.11.2016 23:35 3,2 C 94 % 1029,2 hPa 0,0 mm W 265 4,8 km/h (1 Bft)
15.11.2016 23:40 3,3 C 94 % 1029,2 hPa 0,2 mm W 263 4,8 km/h (1 Bft)
15.11.2016 23:45 3,4 C 94 % 1029,2 hPa 0,0 mm W 265 6,4 km/h (2 Bft)
15.11.2016 23:50 3,5 C 94 % 1029,0 hPa 0,0 mm W 265 3,2 km/h (1 Bft)
15.11.2016 23:55 3,6 C 94 % 1029,0 hPa 0,0 mm W 270 3,2 km/h (1 Bft)
_ Min-Zeit 05:30 13:05 23:50 - - - 00:00
Minimum _ -5,4 C 75 % 1029,0 hPa - - - 0,0 km/h (0 Bft)
_ Max-Zeit 13:15 08:40 08:00 20:55 - - 13:05
Maximum _ 4,6 C 95 % 1034,2 hPa 0,2 mm - - 11,3 km/h
W (2 Bft)
Durchschnitt _ 0,2 C 89 % 1032,2 hPa #0,4 mm W-SW - 1,7 km/h (1 Bft)